Pioneer, Ohio
Current Conditions -  °F | °C
As of 7:54 PM on Tuesday 21 Oct 2014 (Local Time) from KJYM Reporting Station
Overcast Overcast  
Wind Chill: 42°   Ceiling: 3300
Heat Index: 44°   Visibility: 10mi
Dew Point: 36°   Wind: 5mph
Humidity: 72%   Direction: 10°N
Pressure: 30.18"   Gusts: NA
Location:  41.68°N, 84.55°W
Report Text: KJYM 212354Z AUTO 01004KT 10SM OVC033 07/02 A3018 RMK AO2 T00680021
Loading
Personal Weather Stations






























Interactive Weather Map
Tropical Storm Tracking
New forecast layout! Learn more

10-Day Weather Forecast

Advertisements
Track Severe Weather on mobile